createdAt,value
2019-01-27T00:00:03.293Z,1.1
2019-01-27T00:01:03.924Z,2.5
2019-01-27T00:02:03.563Z,2.5
2019-01-27T00:03:03.367Z,2.5
2019-01-27T00:04:03.148Z,2.5
2019-01-27T00:05:03.485Z,2.5
2019-01-27T00:06:03.025Z,2.5
2019-01-27T00:07:02.970Z,0
2019-01-27T00:08:03.058Z,0
2019-01-27T00:09:03.728Z,0
2019-01-27T00:10:03.423Z,0
2019-01-27T00:11:03.232Z,0
2019-01-27T00:12:03.175Z,0
2019-01-27T00:13:03.404Z,0
2019-01-27T00:14:03.179Z,0
2019-01-27T00:15:03.678Z,0
2019-01-27T00:16:03.429Z,0
2019-01-27T00:17:03.260Z,1.1
2019-01-27T00:18:03.135Z,1.1
2019-01-27T00:19:03.478Z,1.1
2019-01-27T00:20:02.139Z,0
2019-01-27T00:21:03.381Z,0
2019-01-27T00:22:03.075Z,0
2019-01-27T00:23:03.320Z,0
2019-01-27T00:24:03.034Z,2.5
2019-01-27T00:25:03.722Z,1.1
2019-01-27T00:26:03.444Z,1.1
2019-01-27T00:27:03.330Z,1.1
2019-01-27T00:28:03.811Z,1.1
2019-01-27T00:29:03.486Z,0
2019-01-27T00:30:03.566Z,0
2019-01-27T00:31:03.157Z,0
2019-01-27T00:32:03.010Z,0
2019-01-27T00:33:03.737Z,0
2019-01-27T00:34:03.149Z,1.1
2019-01-27T00:35:03.133Z,0
2019-01-27T00:36:02.888Z,0
2019-01-27T00:37:02.932Z,0
2019-01-27T00:38:03.226Z,0
2019-01-27T00:39:03.030Z,0
2019-01-27T00:40:03.824Z,0
2019-01-27T00:41:03.378Z,0
2019-01-27T00:42:03.325Z,0
2019-01-27T00:43:02.060Z,0
2019-01-27T00:44:03.358Z,0
2019-01-27T00:45:04.017Z,0
2019-01-27T00:46:03.833Z,0
2019-01-27T00:47:03.340Z,0
2019-01-27T00:48:03.644Z,0
2019-01-27T00:49:02.446Z,0
2019-01-27T00:50:03.245Z,0
2019-01-27T00:51:03.034Z,0
2019-01-27T00:52:03.851Z,0
2019-01-27T00:53:03.839Z,1.1
2019-01-27T00:54:03.571Z,1.1
2019-01-27T00:55:03.876Z,0
2019-01-27T00:56:03.706Z,0
2019-01-27T00:57:03.600Z,1.1
2019-01-27T00:58:03.131Z,1.1
2019-01-27T00:59:03.207Z,0
2019-01-27T01:00:03.200Z,0
2019-01-27T01:01:03.106Z,0
2019-01-27T01:02:02.932Z,0
2019-01-27T01:03:02.985Z,0
2019-01-27T01:04:02.792Z,0
2019-01-27T01:05:03.250Z,0
2019-01-27T01:06:03.250Z,0
2019-01-27T01:07:03.185Z,0
2019-01-27T01:08:02.150Z,0
2019-01-27T01:09:03.984Z,1.1
2019-01-27T01:10:03.844Z,1.1
2019-01-27T01:11:03.701Z,0
2019-01-27T01:12:03.406Z,0
2019-01-27T01:13:02.962Z,0
2019-01-27T01:14:03.113Z,0
2019-01-27T01:15:03.873Z,0
2019-01-27T01:16:03.616Z,0
2019-01-27T01:17:03.414Z,0
2019-01-27T01:18:02.980Z,0
2019-01-27T01:19:03.004Z,1.1
2019-01-27T01:20:04.019Z,1.1
2019-01-27T01:21:03.109Z,1.1
2019-01-27T01:22:02.978Z,1.1
2019-01-27T01:23:03.369Z,2.5
2019-01-27T01:24:03.505Z,2.5
2019-01-27T01:25:03.151Z,1.1
2019-01-27T01:26:03.074Z,1.1
2019-01-27T01:27:03.057Z,0
2019-01-27T01:28:03.906Z,0
2019-01-27T01:29:03.818Z,0
2019-01-27T01:30:03.605Z,0
2019-01-27T01:31:02.450Z,0
2019-01-27T01:32:03.546Z,0
2019-01-27T01:33:03.886Z,0
2019-01-27T01:34:03.936Z,0
2019-01-27T01:35:03.573Z,0
2019-01-27T01:36:03.117Z,0
2019-01-27T01:37:03.491Z,0
2019-01-27T01:38:03.184Z,0
2019-01-27T01:39:03.946Z,0
2019-01-27T01:40:03.927Z,0
2019-01-27T01:41:03.610Z,0
2019-01-27T01:42:03.425Z,0
2019-01-27T01:43:03.078Z,0
2019-01-27T01:44:02.987Z,0
2019-01-27T01:45:03.574Z,0
2019-01-27T01:46:03.215Z,0
2019-01-27T01:47:03.690Z,0
2019-01-27T01:48:03.475Z,0
2019-01-27T01:49:03.554Z,0
2019-01-27T01:50:03.385Z,0
2019-01-27T01:51:03.483Z,0
2019-01-27T01:52:03.210Z,0
2019-01-27T01:53:02.865Z,0
2019-01-27T01:54:03.560Z,0
2019-01-27T01:55:03.108Z,0
2019-01-27T01:56:02.282Z,0
2019-01-27T01:57:04.043Z,0
2019-01-27T01:58:02.259Z,0
2019-01-27T01:59:03.296Z,0
2019-01-27T02:00:03.344Z,0
2019-01-27T02:01:02.938Z,0
2019-01-27T02:02:03.549Z,0
2019-01-27T02:03:03.467Z,0
2019-01-27T02:04:03.999Z,0
2019-01-27T02:05:03.340Z,0
2019-01-27T02:06:03.651Z,0
2019-01-27T02:07:03.143Z,0
2019-01-27T02:08:02.986Z,0
2019-01-27T02:09:02.837Z,0
2019-01-27T02:10:03.097Z,0
2019-01-27T02:11:03.002Z,0
2019-01-27T02:12:03.674Z,0
2019-01-27T02:13:03.857Z,0
2019-01-27T02:14:02.963Z,0
2019-01-27T02:15:03.918Z,0
2019-01-27T02:16:03.737Z,0
2019-01-27T02:17:03.658Z,0
2019-01-27T02:18:02.527Z,0
2019-01-27T02:19:02.538Z,0
2019-01-27T02:20:03.415Z,0
2019-01-27T02:21:03.555Z,0
2019-01-27T02:22:03.571Z,0
2019-01-27T02:23:03.792Z,0
2019-01-27T02:24:03.463Z,0
2019-01-27T02:25:03.016Z,0
2019-01-27T02:26:02.998Z,0
2019-01-27T02:27:03.460Z,0
2019-01-27T02:28:03.530Z,0
2019-01-27T02:29:03.928Z,0
2019-01-27T02:30:03.511Z,0
2019-01-27T02:31:03.196Z,0
2019-01-27T02:32:03.151Z,0
2019-01-27T02:33:03.908Z,0
2019-01-27T02:34:03.576Z,0
2019-01-27T02:35:03.583Z,0
2019-01-27T02:36:02.991Z,0
2019-01-27T02:37:03.091Z,0
2019-01-27T02:38:03.553Z,0
2019-01-27T02:39:03.249Z,0
2019-01-27T02:40:02.730Z,0
2019-01-27T02:41:03.818Z,0
2019-01-27T02:42:03.800Z,0
2019-01-27T02:43:02.060Z,0
2019-01-27T02:44:03.905Z,0
2019-01-27T02:45:03.650Z,0
2019-01-27T02:46:03.420Z,0
2019-01-27T02:47:03.050Z,0
2019-01-27T02:48:03.278Z,0
2019-01-27T02:49:03.106Z,0
2019-01-27T02:50:03.311Z,0
2019-01-27T02:51:03.336Z,0
2019-01-27T02:52:03.416Z,0
2019-01-27T02:53:02.934Z,0
2019-01-27T02:54:03.884Z,0
2019-01-27T02:55:03.828Z,0
2019-01-27T02:56:03.535Z,0
2019-01-27T02:57:03.211Z,0
2019-01-27T02:58:03.869Z,0
2019-01-27T02:59:03.758Z,0
2019-01-27T03:00:03.803Z,0
2019-01-27T03:01:03.512Z,0
2019-01-27T03:02:03.697Z,0
2019-01-27T03:03:03.665Z,0
2019-01-27T03:04:03.099Z,0
2019-01-27T03:05:03.379Z,0
2019-01-27T03:06:03.064Z,0
2019-01-27T03:07:03.825Z,0
2019-01-27T03:08:02.127Z,0
2019-01-27T03:09:03.525Z,0
2019-01-27T03:10:03.219Z,0
2019-01-27T03:11:04.164Z,0
2019-01-27T03:12:03.183Z,0
2019-01-27T03:13:03.273Z,1.1
2019-01-27T03:14:03.658Z,0
2019-01-27T03:15:03.091Z,0
2019-01-27T03:16:03.337Z,1.1
2019-01-27T03:17:03.676Z,1.1
2019-01-27T03:18:03.331Z,0
2019-01-27T03:19:03.309Z,1.1
2019-01-27T03:20:03.964Z,1.1
2019-01-27T03:21:03.734Z,0
2019-01-27T03:22:03.554Z,0
2019-01-27T03:23:03.813Z,1.1
2019-01-27T03:24:03.453Z,1.1
2019-01-27T03:25:03.689Z,0
2019-01-27T03:26:03.318Z,0
2019-01-27T03:27:03.630Z,0
2019-01-27T03:28:03.498Z,0
2019-01-27T03:29:03.561Z,1.1
2019-01-27T03:30:02.885Z,0
2019-01-27T03:31:03.731Z,0
2019-01-27T03:32:03.302Z,0
2019-01-27T03:33:03.154Z,0
2019-01-27T03:34:03.840Z,1.1
2019-01-27T03:35:02.809Z,0
2019-01-27T03:36:02.673Z,0
2019-01-27T03:37:01.930Z,0
2019-01-27T03:38:03.113Z,0
2019-01-27T03:39:02.226Z,0
2019-01-27T03:40:03.619Z,0
2019-01-27T03:41:03.092Z,0
2019-01-27T03:42:03.464Z,0
2019-01-27T03:43:03.229Z,0
2019-01-27T03:44:03.640Z,1.1
2019-01-27T03:45:03.090Z,1.1
2019-01-27T03:46:03.688Z,1.1
2019-01-27T03:47:03.583Z,2.5
2019-01-27T03:48:03.372Z,2.5
2019-01-27T03:49:03.941Z,1.1
2019-01-27T03:50:03.612Z,3.6
2019-01-27T03:51:03.915Z,3.6
2019-01-27T03:52:03.365Z,3.6
2019-01-27T03:53:03.186Z,2.5
2019-01-27T03:54:03.041Z,2.5
2019-01-27T03:55:03.547Z,1.1
2019-01-27T03:56:03.495Z,2.5
2019-01-27T03:57:03.180Z,1.1
2019-01-27T03:58:03.415Z,2.5
2019-01-27T03:59:02.170Z,0
2019-01-27T04:00:03.214Z,0
2019-01-27T04:01:02.901Z,0
2019-01-27T04:02:03.816Z,0
2019-01-27T04:03:03.775Z,0
2019-01-27T04:04:02.840Z,0
2019-01-27T04:05:03.143Z,0
2019-01-27T04:06:03.183Z,1.1
2019-01-27T04:07:03.698Z,1.1
2019-01-27T04:08:03.195Z,1.1
2019-01-27T04:09:03.113Z,2.5
2019-01-27T04:10:02.997Z,2.5
2019-01-27T04:11:03.222Z,1.1
2019-01-27T04:12:04.042Z,1.1
2019-01-27T04:13:03.681Z,1.1
2019-01-27T04:14:03.378Z,1.1
2019-01-27T04:15:03.763Z,1.1
2019-01-27T04:16:03.441Z,1.1
2019-01-27T04:17:03.321Z,1.1
2019-01-27T04:18:03.734Z,0
2019-01-27T04:19:03.718Z,1.1
2019-01-27T04:20:03.823Z,1.1
2019-01-27T04:21:01.963Z,1.1
2019-01-27T04:22:01.893Z,1.1
2019-01-27T04:23:03.230Z,1.1
2019-01-27T04:24:03.330Z,2.5
2019-01-27T04:25:03.050Z,1.1
2019-01-27T04:26:03.622Z,1.1
2019-01-27T04:27:03.540Z,1.1
2019-01-27T04:28:03.833Z,1.1
2019-01-27T04:29:03.367Z,2.5
2019-01-27T04:30:03.697Z,2.5
2019-01-27T04:31:03.455Z,1.1
2019-01-27T04:32:03.316Z,2.5
2019-01-27T04:33:03.844Z,1.1
2019-01-27T04:34:03.561Z,1.1
2019-01-27T04:35:03.396Z,2.5
2019-01-27T04:36:03.267Z,2.5
2019-01-27T04:37:03.154Z,2.5
2019-01-27T04:38:03.725Z,0
2019-01-27T04:39:03.477Z,0
2019-01-27T04:40:03.586Z,0
2019-01-27T04:41:02.991Z,2.5
2019-01-27T04:42:03.510Z,2.5
2019-01-27T04:43:03.162Z,2.5
2019-01-27T04:44:02.407Z,2.5
2019-01-27T04:45:03.695Z,2.5
2019-01-27T04:46:01.968Z,1.1
2019-01-27T04:47:03.267Z,0
2019-01-27T04:48:03.002Z,1.1
2019-01-27T04:49:03.640Z,2.5
2019-01-27T04:50:03.364Z,1.1
2019-01-27T04:51:03.149Z,0
2019-01-27T04:52:03.595Z,2.5
2019-01-27T04:53:03.770Z,3.6
2019-01-27T04:54:03.110Z,3.6
2019-01-27T04:55:03.428Z,1.1
2019-01-27T04:56:03.364Z,1.1
2019-01-27T04:57:03.590Z,2.5
2019-01-27T04:58:03.613Z,2.5
2019-01-27T04:59:03.754Z,1.1
2019-01-27T05:00:03.609Z,1.1
2019-01-27T05:01:03.478Z,0
2019-01-27T05:02:03.393Z,0
2019-01-27T05:03:03.517Z,0
2019-01-27T05:04:03.368Z,0
2019-01-27T05:05:03.811Z,0
2019-01-27T05:06:03.449Z,0
2019-01-27T05:07:03.639Z,1.1
2019-01-27T05:08:03.159Z,1.1
2019-01-27T05:09:03.276Z,1.1
2019-01-27T05:10:02.979Z,0
2019-01-27T05:11:03.592Z,0
2019-01-27T05:12:03.811Z,0
2019-01-27T05:13:03.052Z,0
2019-01-27T05:14:03.454Z,0
2019-01-27T05:15:03.747Z,0
2019-01-27T05:16:03.353Z,0
2019-01-27T05:17:03.558Z,0
2019-01-27T05:18:03.109Z,1.1
2019-01-27T05:19:03.693Z,0
2019-01-27T05:20:04.046Z,0
2019-01-27T05:21:03.661Z,0
2019-01-27T05:22:03.524Z,0
2019-01-27T05:23:03.268Z,1.1
2019-01-27T05:24:02.927Z,1.1
2019-01-27T05:25:03.216Z,1.1
2019-01-27T05:26:04.040Z,1.1
2019-01-27T05:27:02.994Z,1.1
2019-01-27T05:28:04.032Z,1.1
2019-01-27T05:29:03.779Z,2.5
2019-01-27T05:30:03.401Z,2.5
2019-01-27T05:31:03.052Z,1.1
2019-01-27T05:32:02.927Z,0
2019-01-27T05:33:03.555Z,0
2019-01-27T05:34:03.709Z,1.1
2019-01-27T05:35:03.256Z,0
2019-01-27T05:36:03.842Z,0
2019-01-27T05:37:03.782Z,1.1
2019-01-27T05:38:03.112Z,1.1
2019-01-27T05:39:03.278Z,2.5
2019-01-27T05:40:02.755Z,1.1
2019-01-27T05:41:03.760Z,0
2019-01-27T05:42:03.456Z,0
2019-01-27T05:43:03.696Z,1.1
2019-01-27T05:44:03.509Z,1.1
2019-01-27T05:45:03.406Z,2.5
2019-01-27T05:46:03.276Z,2.5
2019-01-27T05:47:03.825Z,2.5
2019-01-27T05:48:02.856Z,2.5
2019-01-27T05:49:03.684Z,1.1
2019-01-27T05:50:03.335Z,1.1
2019-01-27T05:51:03.671Z,2.5
2019-01-27T05:52:03.506Z,2.5
2019-01-27T05:53:03.396Z,1.1
2019-01-27T05:54:02.723Z,1.1
2019-01-27T05:55:03.242Z,2.5
2019-01-27T05:56:03.425Z,2.5
2019-01-27T05:57:03.312Z,2.5
2019-01-27T05:58:03.023Z,2.5
2019-01-27T05:59:03.809Z,2.5
2019-01-27T06:00:03.213Z,0
2019-01-27T06:01:03.470Z,0
2019-01-27T06:02:02.848Z,1.1
2019-01-27T06:03:03.647Z,1.1
2019-01-27T06:04:03.053Z,1.1
2019-01-27T06:05:03.048Z,1.1
2019-01-27T06:06:03.649Z,2.5
2019-01-27T06:07:03.477Z,2.5
2019-01-27T06:08:02.836Z,2.5
2019-01-27T06:09:03.858Z,2.5
2019-01-27T06:10:03.513Z,0
2019-01-27T06:11:02.985Z,0
2019-01-27T06:12:03.227Z,0
2019-01-27T06:13:03.575Z,0
2019-01-27T06:14:02.405Z,0
2019-01-27T06:15:03.188Z,0
2019-01-27T06:16:02.327Z,0
2019-01-27T06:17:03.497Z,0
2019-01-27T06:18:03.517Z,2.5
2019-01-27T06:19:03.495Z,2.5
2019-01-27T06:20:03.409Z,2.5
2019-01-27T06:21:03.721Z,3.6
2019-01-27T06:22:03.165Z,2.5
2019-01-27T06:23:03.629Z,2.5
2019-01-27T06:24:03.244Z,2.5
2019-01-27T06:25:03.859Z,3.6
2019-01-27T06:26:03.484Z,2.5
2019-01-27T06:27:03.251Z,2.5
2019-01-27T06:28:03.948Z,2.5
2019-01-27T06:29:02.809Z,2.5
2019-01-27T06:30:04.165Z,2.5
2019-01-27T06:31:03.786Z,3.6
2019-01-27T06:32:03.597Z,3.6
2019-01-27T06:33:03.548Z,3.6
2019-01-27T06:34:03.340Z,2.5
2019-01-27T06:35:03.154Z,2.5
2019-01-27T06:36:03.107Z,0
2019-01-27T06:37:03.318Z,1.1
2019-01-27T06:38:02.235Z,1.1
2019-01-27T06:39:03.137Z,2.5
2019-01-27T06:40:03.828Z,1.1
2019-01-27T06:41:03.318Z,1.1
2019-01-27T06:42:03.151Z,1.1
2019-01-27T06:43:02.918Z,1.1
2019-01-27T06:44:03.027Z,2.5
2019-01-27T06:45:03.072Z,1.1
2019-01-27T06:46:03.260Z,2.5
2019-01-27T06:47:03.676Z,2.5
2019-01-27T06:48:03.521Z,2.5
2019-01-27T06:49:03.560Z,5
2019-01-27T06:50:03.542Z,5
2019-01-27T06:51:03.039Z,3.6
2019-01-27T06:52:03.680Z,3.6
2019-01-27T06:53:03.663Z,3.6
2019-01-27T06:54:03.365Z,3.6
2019-01-27T06:55:03.820Z,3.6
2019-01-27T06:56:03.776Z,3.6
2019-01-27T06:57:02.988Z,3.6
2019-01-27T06:58:03.177Z,2.5
2019-01-27T06:59:02.561Z,2.5
2019-01-27T07:00:03.083Z,2.5
2019-01-27T07:01:03.938Z,2.5
2019-01-27T07:02:03.356Z,2.5
2019-01-27T07:03:03.466Z,2.5
2019-01-27T07:04:03.782Z,2.5
2019-01-27T07:05:03.135Z,2.5
2019-01-27T07:06:03.519Z,2.5
2019-01-27T07:07:03.159Z,2.5
2019-01-27T07:08:02.985Z,2.5
2019-01-27T07:09:05.203Z,2.5
2019-01-27T07:10:02.895Z,2.5
2019-01-27T07:11:04.060Z,2.5
2019-01-27T07:12:03.485Z,1.1
2019-01-27T07:13:03.205Z,1.1
2019-01-27T07:14:03.185Z,1.1
2019-01-27T07:15:03.275Z,2.5
2019-01-27T07:16:03.128Z,2.5
2019-01-27T07:17:04.181Z,2.5
2019-01-27T07:18:03.540Z,2.5
2019-01-27T07:19:03.319Z,1.1
2019-01-27T07:20:03.450Z,1.1
2019-01-27T07:21:03.266Z,2.5
2019-01-27T07:22:03.815Z,2.5
2019-01-27T07:23:03.223Z,1.1
2019-01-27T07:24:02.575Z,2.5
2019-01-27T07:25:03.950Z,2.5
2019-01-27T07:26:03.603Z,2.5
2019-01-27T07:27:03.458Z,2.5
2019-01-27T07:28:03.520Z,2.5
2019-01-27T07:29:03.626Z,1.1
2019-01-27T07:30:03.626Z,1.1
2019-01-27T07:31:03.297Z,2.5
2019-01-27T07:32:04.087Z,1.1
2019-01-27T07:33:03.014Z,2.5
2019-01-27T07:34:03.688Z,2.5
2019-01-27T07:35:03.625Z,2.5
2019-01-27T07:36:03.300Z,2.5
2019-01-27T07:37:02.915Z,3.6
2019-01-27T07:38:03.958Z,2.5
2019-01-27T07:39:03.453Z,2.5
2019-01-27T07:40:03.624Z,2.5
2019-01-27T07:41:02.930Z,2.5
2019-01-27T07:42:03.651Z,2.5
2019-01-27T07:43:03.438Z,2.5
2019-01-27T07:44:03.163Z,2.5
2019-01-27T07:45:03.937Z,2.5
2019-01-27T07:46:02.248Z,3.6
2019-01-27T07:47:02.239Z,2.5
2019-01-27T07:48:03.934Z,2.5
2019-01-27T07:49:03.750Z,2.5
2019-01-27T07:50:03.907Z,1.1
2019-01-27T07:51:02.818Z,0
2019-01-27T07:52:02.991Z,0
2019-01-27T07:53:03.405Z,1.1
2019-01-27T07:54:03.080Z,1.1
2019-01-27T07:55:03.807Z,2.5
2019-01-27T07:56:03.306Z,2.5
2019-01-27T07:57:03.433Z,2.5
2019-01-27T07:58:03.072Z,2.5
2019-01-27T07:59:03.045Z,2.5
2019-01-27T08:00:03.708Z,2.5
2019-01-27T08:01:03.520Z,2.5
2019-01-27T08:02:03.244Z,2.5
2019-01-27T08:03:03.784Z,3.6
2019-01-27T08:04:02.737Z,3.6
2019-01-27T08:05:03.081Z,1.1
2019-01-27T08:06:02.998Z,3.6
2019-01-27T08:07:03.382Z,2.5
2019-01-27T08:08:03.186Z,2.5
2019-01-27T08:09:03.531Z,0
2019-01-27T08:10:02.462Z,1.1
2019-01-27T08:11:01.977Z,1.1
2019-01-27T08:12:02.745Z,2.5
2019-01-27T08:13:03.114Z,2.5
2019-01-27T08:14:03.164Z,2.5
2019-01-27T08:15:03.053Z,1.1
2019-01-27T08:16:03.698Z,1.1
2019-01-27T08:17:03.964Z,1.1
2019-01-27T08:18:03.700Z,1.1
2019-01-27T08:19:03.913Z,1.1
2019-01-27T08:20:03.587Z,1.1
2019-01-27T08:21:03.084Z,3.6
2019-01-27T08:22:03.589Z,3.6
2019-01-27T08:23:03.884Z,1.1
2019-01-27T08:24:03.608Z,2.5
2019-01-27T08:25:03.308Z,2.5
2019-01-27T08:26:03.803Z,5
2019-01-27T08:27:03.676Z,3.6
2019-01-27T08:28:03.022Z,3.6
2019-01-27T08:29:02.996Z,3.6
2019-01-27T08:30:03.585Z,5
2019-01-27T08:31:02.960Z,5
2019-01-27T08:32:03.733Z,5
2019-01-27T08:33:03.491Z,3.6
2019-01-27T08:34:03.087Z,2.5
2019-01-27T08:35:02.747Z,2.5
2019-01-27T08:36:02.420Z,3.6
2019-01-27T08:37:02.964Z,3.6
2019-01-27T08:38:03.458Z,3.6
2019-01-27T08:39:03.076Z,3.6
2019-01-27T08:40:03.799Z,2.5
2019-01-27T08:41:03.270Z,2.5
2019-01-27T08:42:02.867Z,2.5
2019-01-27T08:43:03.640Z,3.6
2019-01-27T08:44:03.671Z,3.6
2019-01-27T08:45:03.747Z,2.5
2019-01-27T08:46:03.712Z,2.5
2019-01-27T08:47:03.322Z,2.5
2019-01-27T08:48:03.406Z,2.5
2019-01-27T08:49:03.960Z,2.5
2019-01-27T08:50:03.895Z,3.6
2019-01-27T08:51:03.762Z,3.6
2019-01-27T08:52:03.476Z,1.1
2019-01-27T08:53:03.148Z,1.1
2019-01-27T08:54:02.888Z,1.1
2019-01-27T08:55:03.927Z,2.5
2019-01-27T08:56:02.926Z,2.5
2019-01-27T08:57:03.413Z,2.5
2019-01-27T08:58:03.513Z,2.5
2019-01-27T08:59:03.274Z,2.5
2019-01-27T09:00:03.745Z,2.5
2019-01-27T09:01:02.617Z,2.5
2019-01-27T09:02:03.616Z,2.5
2019-01-27T09:03:03.761Z,2.5
2019-01-27T09:04:03.021Z,2.5
2019-01-27T09:05:03.406Z,2.5
2019-01-27T09:06:03.706Z,2.5
2019-01-27T09:07:03.453Z,2.5
2019-01-27T09:08:02.929Z,2.5
2019-01-27T09:09:03.710Z,3.6
2019-01-27T09:10:03.249Z,3.6
2019-01-27T09:11:03.262Z,2.5
2019-01-27T09:12:03.214Z,3.6
2019-01-27T09:13:02.874Z,3.6
2019-01-27T09:14:03.644Z,5
2019-01-27T09:15:03.382Z,3.6
2019-01-27T09:16:03.540Z,3.6
2019-01-27T09:17:03.766Z,3.6
2019-01-27T09:18:03.761Z,5
2019-01-27T09:19:03.491Z,5
2019-01-27T09:20:03.343Z,5
2019-01-27T09:21:02.395Z,5
2019-01-27T09:22:03.104Z,5
2019-01-27T09:23:03.927Z,3.6
2019-01-27T09:24:03.590Z,5
2019-01-27T09:25:03.695Z,3.6
2019-01-27T09:26:03.215Z,5
2019-01-27T09:27:03.078Z,5
2019-01-27T09:28:03.629Z,5
2019-01-27T09:29:03.889Z,5
2019-01-27T09:30:03.494Z,3.6
2019-01-27T09:31:02.891Z,3.6
2019-01-27T09:32:03.606Z,3.6
2019-01-27T09:33:03.007Z,3.6
2019-01-27T09:34:03.948Z,3.6
2019-01-27T09:35:03.255Z,3.6
2019-01-27T09:36:03.447Z,3.6
2019-01-27T09:37:03.089Z,3.6
2019-01-27T09:38:03.439Z,3.6
2019-01-27T09:39:03.248Z,3.6
2019-01-27T09:40:03.135Z,2.5
2019-01-27T09:41:03.784Z,1.1
2019-01-27T09:42:03.756Z,2.5
2019-01-27T09:43:03.402Z,2.5
2019-01-27T09:44:03.207Z,2.5
2019-01-27T09:45:03.118Z,1.1
2019-01-27T09:46:11.941Z,2.5
2019-01-27T09:47:03.402Z,5
2019-01-27T09:48:02.145Z,3.6
2019-01-27T09:49:03.465Z,2.5
2019-01-27T09:50:03.223Z,3.6
2019-01-27T09:51:03.779Z,3.6
2019-01-27T09:52:03.271Z,3.6
2019-01-27T09:53:03.659Z,2.5
2019-01-27T09:54:03.263Z,2.5
2019-01-27T09:55:03.735Z,1.1
2019-01-27T09:56:03.112Z,1.1
2019-01-27T09:57:03.783Z,2.5
2019-01-27T09:58:03.420Z,2.5
2019-01-27T09:59:03.525Z,2.5
2019-01-27T10:00:03.710Z,3.6
2019-01-27T10:01:03.047Z,5
2019-01-27T10:02:03.902Z,5
2019-01-27T10:03:03.958Z,5
2019-01-27T10:04:03.872Z,5
2019-01-27T10:05:03.665Z,5
2019-01-27T10:06:03.048Z,5
2019-01-27T10:07:03.363Z,9.7
2019-01-27T10:08:03.379Z,8.6
2019-01-27T10:09:02.584Z,5
2019-01-27T10:10:02.122Z,6.1
2019-01-27T10:11:03.623Z,5
2019-01-27T10:12:03.437Z,5
2019-01-27T10:13:03.236Z,15.8
2019-01-27T10:14:03.775Z,14.8
2019-01-27T10:15:03.193Z,13.3
2019-01-27T10:16:03.828Z,13.3
2019-01-27T10:17:03.351Z,12.2
2019-01-27T10:18:03.218Z,11.2
2019-01-27T10:19:03.114Z,11.2
2019-01-27T10:20:03.679Z,8.6
2019-01-27T10:21:03.210Z,11.2
2019-01-27T10:22:03.732Z,11.2
2019-01-27T10:23:03.586Z,12.2
2019-01-27T10:24:02.831Z,8.6
2019-01-27T10:25:03.337Z,9.7
2019-01-27T10:26:03.037Z,9.7
2019-01-27T10:27:03.094Z,14.8
2019-01-27T10:28:03.806Z,14.8
2019-01-27T10:29:03.785Z,17.3
2019-01-27T10:30:03.183Z,9.7
2019-01-27T10:31:03.402Z,11.2
2019-01-27T10:32:02.839Z,9.7
2019-01-27T10:33:01.939Z,7.2
2019-01-27T10:34:03.573Z,5
2019-01-27T10:35:03.780Z,8.6
2019-01-27T10:36:03.515Z,8.6
2019-01-27T10:37:03.408Z,3.6
2019-01-27T10:38:03.810Z,11.2
2019-01-27T10:39:03.662Z,8.6
2019-01-27T10:40:11.104Z,8.6
2019-01-27T10:41:03.465Z,8.6
2019-01-27T10:42:03.603Z,9.7
2019-01-27T10:43:03.402Z,8.6
2019-01-27T10:44:03.188Z,8.6
2019-01-27T10:45:03.395Z,7.2
2019-01-27T10:46:03.671Z,5
2019-01-27T10:47:03.539Z,5
2019-01-27T10:48:03.169Z,5
2019-01-27T10:49:03.494Z,5
2019-01-27T10:50:03.571Z,5
2019-01-27T10:51:03.494Z,3.6
2019-01-27T10:52:03.245Z,3.6
2019-01-27T10:53:03.228Z,5
2019-01-27T10:54:03.636Z,3.6
2019-01-27T10:55:03.606Z,6.1
2019-01-27T10:56:02.799Z,3.6
2019-01-27T10:57:02.961Z,2.5
2019-01-27T10:58:03.291Z,2.5
2019-01-27T10:59:03.964Z,3.6
2019-01-27T11:00:03.722Z,5
2019-01-27T11:01:02.818Z,5
2019-01-27T11:02:03.502Z,5
2019-01-27T11:03:03.201Z,5
2019-01-27T11:04:03.707Z,5
2019-01-27T11:05:03.646Z,5
2019-01-27T11:06:03.313Z,5
2019-01-27T11:07:03.678Z,5
2019-01-27T11:08:03.930Z,5
2019-01-27T11:09:03.992Z,0
2019-01-27T11:10:03.764Z,0
2019-01-27T11:11:03.658Z,0
2019-01-27T11:12:03.132Z,2.5
2019-01-27T11:13:03.807Z,5
2019-01-27T11:14:03.579Z,5
2019-01-27T11:15:03.355Z,2.5
2019-01-27T11:16:03.590Z,2.5
2019-01-27T11:17:03.592Z,2.5
2019-01-27T11:18:02.923Z,2.5
2019-01-27T11:19:03.513Z,2.5
2019-01-27T11:20:03.856Z,2.5
2019-01-27T11:21:03.270Z,2.5
2019-01-27T11:22:03.792Z,2.5
2019-01-27T11:23:03.430Z,2.5
2019-01-27T11:24:03.855Z,2.5
2019-01-27T11:25:03.224Z,2.5
2019-01-27T11:26:03.544Z,2.5
2019-01-27T11:27:03.550Z,2.5
2019-01-27T11:28:03.178Z,2.5
2019-01-27T11:29:03.784Z,2.5
2019-01-27T11:30:03.566Z,2.5
2019-01-27T11:31:03.064Z,2.5
2019-01-27T11:32:04.076Z,2.5
2019-01-27T11:33:02.974Z,2.5
2019-01-27T11:34:03.784Z,2.5
2019-01-27T11:35:03.621Z,2.5
2019-01-27T11:36:03.612Z,2.5
2019-01-27T11:37:03.803Z,2.5
2019-01-27T11:38:03.333Z,2.5
2019-01-27T11:39:03.399Z,2.5
2019-01-27T11:40:03.535Z,2.5
2019-01-27T11:41:03.024Z,2.5
2019-01-27T11:42:03.624Z,2.5
2019-01-27T11:43:03.707Z,2.5
2019-01-27T11:44:03.233Z,2.5
2019-01-27T11:45:03.711Z,2.5
2019-01-27T11:46:03.579Z,2.5
2019-01-27T11:47:03.831Z,2.5
2019-01-27T11:48:03.293Z,2.5
2019-01-27T11:49:03.853Z,2.5
2019-01-27T11:50:03.701Z,2.5
2019-01-27T11:51:03.251Z,2.5
2019-01-27T11:52:03.932Z,2.5
2019-01-27T11:53:03.720Z,2.5
2019-01-27T11:54:03.604Z,2.5
2019-01-27T11:55:03.566Z,2.5
2019-01-27T11:56:03.906Z,2.5
2019-01-27T11:57:03.264Z,2.5
2019-01-27T11:58:03.101Z,2.5
2019-01-27T11:59:03.672Z,2.5
2019-01-27T12:00:03.301Z,2.5
2019-01-27T12:01:03.109Z,2.5
2019-01-27T12:02:03.417Z,2.5
2019-01-27T12:03:03.306Z,2.5
2019-01-27T12:04:03.472Z,2.5
2019-01-27T12:05:06.449Z,2.5
2019-01-27T12:06:04.751Z,2.5
2019-01-27T12:07:07.724Z,2.5
2019-01-27T12:08:09.081Z,2.5
2019-01-27T12:09:07.738Z,2.5
2019-01-27T12:10:03.433Z,2.5
2019-01-27T12:11:03.230Z,2.5
2019-01-27T12:12:03.075Z,2.5
2019-01-27T12:13:02.996Z,2.5
2019-01-27T12:14:03.518Z,2.5
2019-01-27T12:15:03.232Z,2.5
2019-01-27T12:16:03.601Z,2.5
2019-01-27T12:17:03.315Z,2.5
2019-01-27T12:18:03.866Z,2.5
2019-01-27T12:19:03.181Z,2.5
2019-01-27T12:20:03.818Z,2.5
2019-01-27T12:21:03.266Z,2.5
2019-01-27T12:22:03.170Z,2.5
2019-01-27T12:23:03.521Z,2.5
2019-01-27T12:24:03.314Z,2.5
2019-01-27T12:25:02.971Z,2.5
2019-01-27T12:26:03.416Z,2.5
2019-01-27T12:27:02.917Z,2.5
2019-01-27T12:28:03.582Z,2.5
2019-01-27T12:29:03.992Z,2.5
2019-01-27T12:30:03.535Z,2.5
2019-01-27T12:31:03.862Z,2.5
2019-01-27T12:32:03.290Z,2.5
2019-01-27T12:33:03.331Z,2.5
2019-01-27T12:34:03.216Z,2.5
2019-01-27T12:35:03.646Z,2.5
2019-01-27T12:36:03.337Z,2.5
2019-01-27T12:37:03.082Z,2.5
2019-01-27T12:38:03.771Z,2.5
2019-01-27T12:39:03.179Z,2.5
2019-01-27T12:40:03.540Z,2.5
2019-01-27T12:41:03.407Z,2.5
2019-01-27T12:42:03.434Z,2.5
2019-01-27T12:43:02.939Z,2.5
2019-01-27T12:44:03.711Z,2.5
2019-01-27T12:45:03.824Z,2.5
2019-01-27T12:46:03.024Z,2.5
2019-01-27T12:47:03.742Z,2.5
2019-01-27T12:48:03.211Z,2.5
2019-01-27T12:49:02.996Z,2.5
2019-01-27T12:50:03.389Z,2.5
2019-01-27T12:51:02.980Z,2.5
2019-01-27T12:52:03.262Z,2.5
2019-01-27T12:53:03.180Z,2.5
2019-01-27T12:54:02.910Z,2.5
2019-01-27T12:55:03.467Z,2.5
2019-01-27T12:56:02.046Z,2.5
2019-01-27T12:57:03.724Z,2.5
2019-01-27T12:58:03.378Z,2.5
2019-01-27T12:59:02.933Z,2.5
2019-01-27T13:00:03.441Z,2.5
2019-01-27T13:01:03.823Z,2.5
2019-01-27T13:02:03.690Z,2.5
2019-01-27T13:03:03.055Z,2.5
2019-01-27T13:04:03.362Z,2.5
2019-01-27T13:05:03.080Z,2.5
2019-01-27T13:06:03.471Z,2.5
2019-01-27T13:07:03.036Z,2.5
2019-01-27T13:08:03.225Z,2.5
2019-01-27T13:09:03.991Z,2.5
2019-01-27T13:10:03.970Z,2.5
2019-01-27T13:11:06.238Z,2.5
2019-01-27T13:12:03.325Z,2.5
2019-01-27T13:13:03.796Z,1.1
2019-01-27T13:14:03.784Z,1.1
2019-01-27T13:15:03.529Z,1.1
2019-01-27T13:16:03.092Z,3.6
2019-01-27T13:17:02.380Z,3.6
2019-01-27T13:18:02.090Z,3.6
2019-01-27T13:19:03.712Z,3.6
2019-01-27T13:20:02.371Z,3.6
2019-01-27T13:21:03.550Z,3.6
2019-01-27T13:22:03.363Z,3.6
2019-01-27T13:23:03.600Z,3.6
2019-01-27T13:24:03.953Z,2.5
2019-01-27T13:25:03.712Z,5
2019-01-27T13:26:04.227Z,2.5
2019-01-27T13:27:03.946Z,2.5
2019-01-27T13:28:03.673Z,2.5
2019-01-27T13:29:02.976Z,2.5
2019-01-27T13:30:03.419Z,2.5
2019-01-27T13:31:03.144Z,2.5
2019-01-27T13:32:03.707Z,2.5
2019-01-27T13:33:03.691Z,2.5
2019-01-27T13:34:03.673Z,2.5
2019-01-27T13:35:03.479Z,2.5
2019-01-27T13:36:03.898Z,2.5
2019-01-27T13:37:03.838Z,2.5
2019-01-27T13:38:03.595Z,1.1
2019-01-27T13:39:03.262Z,1.1
2019-01-27T13:40:03.186Z,5
2019-01-27T13:41:03.154Z,2.5
2019-01-27T13:42:02.244Z,1.1
2019-01-27T13:43:03.084Z,1.1
2019-01-27T13:44:03.262Z,1.1
2019-01-27T13:45:02.994Z,3.6
2019-01-27T13:46:03.343Z,5
2019-01-27T13:47:02.927Z,5
2019-01-27T13:48:02.980Z,5
2019-01-27T13:49:03.641Z,5
2019-01-27T13:50:03.098Z,2.5
2019-01-27T13:51:03.637Z,2.5
2019-01-27T13:52:03.123Z,3.6
2019-01-27T13:53:03.554Z,5
2019-01-27T13:54:03.118Z,2.5
2019-01-27T13:55:03.863Z,2.5
2019-01-27T13:56:03.677Z,2.5
2019-01-27T13:57:03.333Z,2.5
2019-01-27T13:58:02.966Z,1.1
2019-01-27T13:59:03.398Z,1.1
2019-01-27T14:00:03.435Z,1.1
2019-01-27T14:01:03.325Z,1.1
2019-01-27T14:02:03.037Z,3.6
2019-01-27T14:03:21.770Z,5
2019-01-27T14:04:02.892Z,2.5
2019-01-27T14:05:03.071Z,2.5